Arctic Hooper — VD3837 — position and weather

sailwx.info

Track history (hours):
 
Tides and Currents Weather Stations Pressure Air Temp Water Temp Dewpoint Dewpoint Depression Visibility Wind Speed Wind Dir Waves Ship Positions

Arctic Hooper

Last reported at 2018-Apr-21 08:11 UTC. Time now 2018-Apr-22 08:48 UTC.
Position N 49°10' W 123°32'.

Length 30 m; draft 5.1 m.

Type: Towing. MMSI: 316001068.

Date/timePositionNaut miles runAvg speedWind from/ knotsBaromVisibWave heightAir tempDewpointWater temp
2018-Apr-21 08:11N 49°10' W 123°32'3 9.5
2018-Apr-21 07:49N 49°08' W 123°27'4 9.8
2018-Apr-21 07:27N 49°07' W 123°22'4 8.8
2018-Apr-21 06:59N 49°07' W 123°16'4 8.1
2018-Apr-21 06:27N 49°07' W 123°09'3 8.0
2018-Apr-21 06:00N 49°08' W 123°04'4 7.6
2018-Apr-21 05:30N 49°09' W 122°59'3 6.9
2018-Apr-21 05:00N 49°11' W 122°55'0 0.8
2018-Apr-21 04:30N 49°12' W 122°54'0 0.0
2018-Apr-21 04:00N 49°12' W 122°54'0 0.0
2018-Apr-21 03:30N 49°12' W 122°54'0 0.0
2018-Apr-21 03:00N 49°12' W 122°54'1 1.5
2018-Apr-21 02:31N 49°11' W 122°55'4 7.3
2018-Apr-21 02:00N 49°09' W 122°60'4 8.1
2018-Apr-21 01:30N 49°07' W 123°05'4 7.7
2018-Apr-21 01:00N 49°07' W 123°11'4 7.3
2018-Apr-21 00:30N 49°07' W 123°17'4 7.4
2018-Apr-21 00:00N 49°07' W 123°22'5 9.1
2018-Apr-20 23:29N 49°08' W 123°29'4 9.3
2018-Apr-20 23:00N 49°10' W 123°36'5 9.1
2018-Apr-20 22:26N 49°11' W 123°43'7 0.5
2018-Apr-20 08:30N 49°10' W 123°33'5 9.1
2018-Apr-20 07:56N 49°08' W 123°25'4 9.3
2018-Apr-20 07:30N 49°06' W 123°20'5 9.2
2018-Apr-20 07:00N 49°08' W 123°13'5 8.8
2018-Apr-20 06:28N 49°07' W 123°06'4 8.4
2018-Apr-20 06:00N 49°09' W 123°01'4 7.5
2018-Apr-20 05:30N 49°10' W 122°56'2 3.9
2018-Apr-20 05:00N 49°12' W 122°54'0 0.0
2018-Apr-20 04:30N 49°12' W 122°54'0 0.0
2018-Apr-20 04:00N 49°12' W 122°54'0 0.0
2018-Apr-20 03:30N 49°12' W 122°54'0 0.0
2018-Apr-20 03:01N 49°12' W 122°54'0 0.1
2018-Apr-20 02:30N 49°12' W 122°54'4 7.1
2018-Apr-20 02:00N 49°09' W 122°59'4 8.7
2018-Apr-20 01:30N 49°07' W 123°05'4 8.4
2018-Apr-20 00:59N 49°07' W 123°11'4 7.7
2018-Apr-20 00:30N 49°07' W 123°17'4 8.0
2018-Apr-20 00:00N 49°07' W 123°23'5 9.0
2018-Apr-19 23:30N 49°08' W 123°29'5 9.2
2018-Apr-19 22:59N 49°10' W 123°36'5 9.2
2018-Apr-19 22:29N 49°11' W 123°43'7 0.5
2018-Apr-19 08:13N 49°10' W 123°32'3 8.8
2018-Apr-19 07:55N 49°09' W 123°29'4 8.5
2018-Apr-19 07:30N 49°07' W 123°24'5 8.2
2018-Apr-19 06:54N 49°07' W 123°16'4 8.5
2018-Apr-19 06:30N 49°07' W 123°11'4 8.9
2018-Apr-19 06:00N 49°07' W 123°04'4 8.4
2018-Apr-19 05:30N 49°09' W 122°59'3 6.9
2018-Apr-19 05:00N 49°12' W 122°55'0 0.3
2018-Apr-19 04:30N 49°12' W 122°54'0 0.0
2018-Apr-19 03:59N 49°12' W 122°54'0 0.0
2018-Apr-19 03:30N 49°12' W 122°54'0 0.0
2018-Apr-19 03:00N 49°12' W 122°54'0 0.0
2018-Apr-19 02:30N 49°12' W 122°54'2 4.7
2018-Apr-19 02:00N 49°10' W 122°56'5 9.1
2018-Apr-19 01:30N 49°08' W 123°03'4 8.9
2018-Apr-19 01:00N 49°07' W 123°09'4 8.4
2018-Apr-19 00:29N 49°07' W 123°16'4 8.3
2018-Apr-18 23:58N 49°07' W 123°22'5 9.3
2018-Apr-18 23:29N 49°08' W 123°29'5 9.6
2018-Apr-18 23:00N 49°09' W 123°36'5 9.3
2018-Apr-18 22:30N 49°11' W 123°42'8 0.6
2018-Apr-18 07:50N 49°09' W 123°30'5 8.7
2018-Apr-18 07:18N 49°07' W 123°24'3 9.3
2018-Apr-18 06:58N 49°06' W 123°19'510.0
2018-Apr-18 06:30N 49°08' W 123°13'5 9.9
2018-Apr-18 06:00N 49°07' W 123°05'5 9.3
2018-Apr-18 05:30N 49°09' W 122°59'4 7.5
2018-Apr-18 05:00N 49°12' W 122°55'0 0.4
2018-Apr-18 04:30N 49°12' W 122°54'0 0.0
2018-Apr-18 04:00N 49°12' W 122°54'0 0.0
2018-Apr-18 03:30N 49°12' W 122°54'0 0.0
2018-Apr-18 03:00N 49°12' W 122°54'0 0.0
2018-Apr-18 02:30N 49°12' W 122°54'3 6.6
2018-Apr-18 02:01N 49°09' W 122°58'5 9.4
2018-Apr-18 01:30N 49°07' W 123°04'5 9.2
2018-Apr-18 00:59N 49°07' W 123°12'4 8.7
2018-Apr-18 00:30N 49°06' W 123°18'4 8.5
2018-Apr-18 00:00N 49°07' W 123°24'4 8.7
2018-Apr-17 23:30N 49°09' W 123°31'5 9.4
2018-Apr-17 22:57N 49°10' W 123°38'2 0.2
2018-Apr-17 08:05N 49°10' W 123°34'3 9.1
2018-Apr-17 07:47N 49°09' W 123°30'4 9.1
2018-Apr-17 07:23N 49°08' W 123°25'4 9.3
2018-Apr-17 06:55N 49°06' W 123°19'510.7
2018-Apr-17 06:30N 49°08' W 123°13'510.7
2018-Apr-17 06:00N 49°07' W 123°05'5 9.8
2018-Apr-17 05:30N 49°09' W 122°58'3 6.3
2018-Apr-17 05:00N 49°12' W 122°54'0 0.0
2018-Apr-17 04:30N 49°12' W 122°54'0 0.0
2018-Apr-17 04:00N 49°12' W 122°54'0 0.0
2018-Apr-17 03:30N 49°12' W 122°54'0 0.0
2018-Apr-17 03:00N 49°12' W 122°54'0 0.2
2018-Apr-17 02:30N 49°12' W 122°55'4 8.0
2018-Apr-17 02:00N 49°09' W 122°60'510.0
2018-Apr-17 01:30N 49°07' W 123°06'5 9.2
2018-Apr-17 00:59N 49°08' W 123°13'4 9.0
2018-Apr-17 00:30N 49°06' W 123°20'5 9.2
2018-Apr-16 23:57N 49°08' W 123°27'4 9.3
2018-Apr-16 23:30N 49°09' W 123°33'  
2018-Apr-14 07:30N 49°08' W 123°30'5 9.5
2018-Apr-14 07:00N 49°07' W 123°23'510.0
2018-Apr-14 06:29N 49°08' W 123°15'611.6
2018-Apr-14 06:00N 49°07' W 123°06'611.6
2018-Apr-14 05:29N 49°09' W 122°58'3 7.2
2018-Apr-14 05:00N 49°12' W 122°54'0 0.0
2018-Apr-14 04:28N 49°12' W 122°54'0 0.0
2018-Apr-14 04:00N 49°12' W 122°54'0 0.0
2018-Apr-14 03:30N 49°12' W 122°54'1 2.2
2018-Apr-14 02:59N 49°11' W 122°55'4 7.8
2018-Apr-14 02:30N 49°09' W 123°01'4 8.2
2018-Apr-14 01:59N 49°07' W 123°06'4 8.0
2018-Apr-14 01:30N 49°07' W 123°12'4 8.0
2018-Apr-14 01:00N 49°06' W 123°18'4 8.0
2018-Apr-14 00:30N 49°09' W 123°23'4 8.2
2018-Apr-13 23:59N 49°12' W 123°26'4 7.9
2018-Apr-13 23:28N 49°15' W 123°31'4 8.3
2018-Apr-13 23:00N 49°15' W 123°37'11 0.8
2018-Apr-13 09:26N 49°11' W 123°53'16 8.4
2018-Apr-13 07:34N 49°09' W 123°30'2 9.2
2018-Apr-13 07:18N 49°08' W 123°26'3 9.4
2018-Apr-13 06:58N 49°07' W 123°22'4 9.3
2018-Apr-13 06:30N 49°07' W 123°15'510.6
2018-Apr-13 06:00N 49°07' W 123°07'611.5
2018-Apr-13 05:30N 49°09' W 122°60'4 8.3
2018-Apr-13 05:00N 49°12' W 122°54'0 0.1
2018-Apr-13 04:30N 49°12' W 122°54'0 0.0
2018-Apr-13 04:00N 49°12' W 122°54'0 0.0
2018-Apr-13 03:30N 49°12' W 122°54'0 0.1
2018-Apr-13 03:00N 49°12' W 122°54'3 5.4
2018-Apr-13 02:30N 49°09' W 122°57'4 7.5
2018-Apr-13 02:01N 49°09' W 123°02'4 7.6
2018-Apr-13 01:30N 49°07' W 123°07'4 7.4
2018-Apr-13 01:00N 49°08' W 123°13'4 7.8
2018-Apr-13 00:30N 49°06' W 123°18'5 9.5
2018-Apr-13 00:01N 49°09' W 123°24'4 8.9
2018-Apr-12 23:30N 49°11' W 123°31'4 8.6
2018-Apr-12 23:00N 49°12' W 123°37'2 0.2
2018-Apr-12 08:16N 49°10' W 123°34'410.2
2018-Apr-12 07:52N 49°09' W 123°29'6 9.4
2018-Apr-12 07:15N 49°06' W 123°21'2 8.5
2018-Apr-12 07:00N 49°07' W 123°17'5 9.0
2018-Apr-12 06:25N 49°07' W 123°09'410.5
2018-Apr-12 06:00N 49°08' W 123°03'510.7
2018-Apr-12 05:30N 49°10' W 122°56'2 3.4
2018-Apr-12 05:00N 49°12' W 122°54'0 0.0
2018-Apr-12 04:30N 49°12' W 122°54'0 0.0
2018-Apr-12 04:00N 49°12' W 122°54'0 0.0
2018-Apr-12 03:31N 49°12' W 122°54'1 2.0
2018-Apr-12 03:00N 49°11' W 122°55'3 6.2
2018-Apr-12 02:29N 49°09' W 122°60'3 6.6
2018-Apr-12 02:00N 49°08' W 123°04'3 7.0
2018-Apr-12 01:31N 49°07' W 123°09'4 7.0
2018-Apr-12 01:00N 49°08' W 123°14'4 7.1
2018-Apr-12 00:28N 49°07' W 123°19'4 8.8
2018-Apr-11 23:59N 49°09' W 123°24'4 9.0
2018-Apr-11 23:30N 49°12' W 123°30'4 8.5
2018-Apr-11 23:00N 49°14' W 123°35'4 0.3
2018-Apr-11 08:16N 49°10' W 123°34'  
Track history (hours):
 
Tides and Currents Weather Stations Pressure Air Temp Water Temp Dewpoint Dewpoint Depression Visibility Wind Speed Wind Dir Waves Ship Positions

Arctic Hooper

Last reported at 2018-Apr-21 08:11 UTC. Time now 2018-Apr-22 08:48 UTC.
Position N 49°10' W 123°32'.

Length 30 m; draft 5.1 m.

Type: Towing. MMSI: 316001068.

Date/timePositionNaut miles runAvg speedWind from/ knotsBaromVisibWave heightAir tempDewpointWater temp
2018-Apr-21 08:11N 49°10' W 123°32'3 9.5
2018-Apr-21 07:49N 49°08' W 123°27'4 9.8
2018-Apr-21 07:27N 49°07' W 123°22'4 8.8
2018-Apr-21 06:59N 49°07' W 123°16'4 8.1
2018-Apr-21 06:27N 49°07' W 123°09'3 8.0
2018-Apr-21 06:00N 49°08' W 123°04'4 7.6
2018-Apr-21 05:30N 49°09' W 122°59'3 6.9
2018-Apr-21 05:00N 49°11' W 122°55'0 0.8
2018-Apr-21 04:30N 49°12' W 122°54'0 0.0
2018-Apr-21 04:00N 49°12' W 122°54'0 0.0
2018-Apr-21 03:30N 49°12' W 122°54'0 0.0
2018-Apr-21 03:00N 49°12' W 122°54'1 1.5
2018-Apr-21 02:31N 49°11' W 122°55'4 7.3
2018-Apr-21 02:00N 49°09' W 122°60'4 8.1
2018-Apr-21 01:30N 49°07' W 123°05'4 7.7
2018-Apr-21 01:00N 49°07' W 123°11'4 7.3
2018-Apr-21 00:30N 49°07' W 123°17'4 7.4
2018-Apr-21 00:00N 49°07' W 123°22'5 9.1
2018-Apr-20 23:29N 49°08' W 123°29'4 9.3
2018-Apr-20 23:00N 49°10' W 123°36'5 9.1
2018-Apr-20 22:26N 49°11' W 123°43'7 0.5
2018-Apr-20 08:30N 49°10' W 123°33'5 9.1
2018-Apr-20 07:56N 49°08' W 123°25'4 9.3
2018-Apr-20 07:30N 49°06' W 123°20'5 9.2
2018-Apr-20 07:00N 49°08' W 123°13'5 8.8
2018-Apr-20 06:28N 49°07' W 123°06'4 8.4
2018-Apr-20 06:00N 49°09' W 123°01'4 7.5
2018-Apr-20 05:30N 49°10' W 122°56'2 3.9
2018-Apr-20 05:00N 49°12' W 122°54'0 0.0
2018-Apr-20 04:30N 49°12' W 122°54'0 0.0
2018-Apr-20 04:00N 49°12' W 122°54'0 0.0
2018-Apr-20 03:30N 49°12' W 122°54'0 0.0
2018-Apr-20 03:01N 49°12' W 122°54'0 0.1
2018-Apr-20 02:30N 49°12' W 122°54'4 7.1
2018-Apr-20 02:00N 49°09' W 122°59'4 8.7
2018-Apr-20 01:30N 49°07' W 123°05'4 8.4
2018-Apr-20 00:59N 49°07' W 123°11'4 7.7
2018-Apr-20 00:30N 49°07' W 123°17'4 8.0
2018-Apr-20 00:00N 49°07' W 123°23'5 9.0
2018-Apr-19 23:30N 49°08' W 123°29'5 9.2
2018-Apr-19 22:59N 49°10' W 123°36'5 9.2
2018-Apr-19 22:29N 49°11' W 123°43'7 0.5
2018-Apr-19 08:13N 49°10' W 123°32'3 8.8
2018-Apr-19 07:55N 49°09' W 123°29'4 8.5
2018-Apr-19 07:30N 49°07' W 123°24'5 8.2
2018-Apr-19 06:54N 49°07' W 123°16'4 8.5
2018-Apr-19 06:30N 49°07' W 123°11'4 8.9
2018-Apr-19 06:00N 49°07' W 123°04'4 8.4
2018-Apr-19 05:30N 49°09' W 122°59'3 6.9
2018-Apr-19 05:00N 49°12' W 122°55'0 0.3
2018-Apr-19 04:30N 49°12' W 122°54'0 0.0
2018-Apr-19 03:59N 49°12' W 122°54'0 0.0
2018-Apr-19 03:30N 49°12' W 122°54'0 0.0
2018-Apr-19 03:00N 49°12' W 122°54'0 0.0
2018-Apr-19 02:30N 49°12' W 122°54'2 4.7
2018-Apr-19 02:00N 49°10' W 122°56'5 9.1
2018-Apr-19 01:30N 49°08' W 123°03'4 8.9
2018-Apr-19 01:00N 49°07' W 123°09'4 8.4
2018-Apr-19 00:29N 49°07' W 123°16'4 8.3
2018-Apr-18 23:58N 49°07' W 123°22'5 9.3
2018-Apr-18 23:29N 49°08' W 123°29'5 9.6
2018-Apr-18 23:00N 49°09' W 123°36'5 9.3
2018-Apr-18 22:30N 49°11' W 123°42'8 0.6
2018-Apr-18 07:50N 49°09' W 123°30'5 8.7
2018-Apr-18 07:18N 49°07' W 123°24'3 9.3
2018-Apr-18 06:58N 49°06' W 123°19'510.0
2018-Apr-18 06:30N 49°08' W 123°13'5 9.9
2018-Apr-18 06:00N 49°07' W 123°05'5 9.3
2018-Apr-18 05:30N 49°09' W 122°59'4 7.5
2018-Apr-18 05:00N 49°12' W 122°55'0 0.4
2018-Apr-18 04:30N 49°12' W 122°54'0 0.0
2018-Apr-18 04:00N 49°12' W 122°54'0 0.0
2018-Apr-18 03:30N 49°12' W 122°54'0 0.0
2018-Apr-18 03:00N 49°12' W 122°54'0 0.0
2018-Apr-18 02:30N 49°12' W 122°54'3 6.6
2018-Apr-18 02:01N 49°09' W 122°58'5 9.4
2018-Apr-18 01:30N 49°07' W 123°04'5 9.2
2018-Apr-18 00:59N 49°07' W 123°12'4 8.7
2018-Apr-18 00:30N 49°06' W 123°18'4 8.5
2018-Apr-18 00:00N 49°07' W 123°24'4 8.7
2018-Apr-17 23:30N 49°09' W 123°31'5 9.4
2018-Apr-17 22:57N 49°10' W 123°38'2 0.2
2018-Apr-17 08:05N 49°10' W 123°34'3 9.1
2018-Apr-17 07:47N 49°09' W 123°30'4 9.1
2018-Apr-17 07:23N 49°08' W 123°25'4 9.3
2018-Apr-17 06:55N 49°06' W 123°19'510.7
2018-Apr-17 06:30N 49°08' W 123°13'510.7
2018-Apr-17 06:00N 49°07' W 123°05'5 9.8
2018-Apr-17 05:30N 49°09' W 122°58'3 6.3
2018-Apr-17 05:00N 49°12' W 122°54'0 0.0
2018-Apr-17 04:30N 49°12' W 122°54'0 0.0
2018-Apr-17 04:00N 49°12' W 122°54'0 0.0
2018-Apr-17 03:30N 49°12' W 122°54'0 0.0
2018-Apr-17 03:00N 49°12' W 122°54'0 0.2
2018-Apr-17 02:30N 49°12' W 122°55'4 8.0
2018-Apr-17 02:00N 49°09' W 122°60'510.0
2018-Apr-17 01:30N 49°07' W 123°06'5 9.2
2018-Apr-17 00:59N 49°08' W 123°13'4 9.0
2018-Apr-17 00:30N 49°06' W 123°20'5 9.2
2018-Apr-16 23:57N 49°08' W 123°27'4 9.3
2018-Apr-16 23:30N 49°09' W 123°33'  
2018-Apr-14 07:30N 49°08' W 123°30'5 9.5
2018-Apr-14 07:00N 49°07' W 123°23'510.0
2018-Apr-14 06:29N 49°08' W 123°15'611.6
2018-Apr-14 06:00N 49°07' W 123°06'611.6
2018-Apr-14 05:29N 49°09' W 122°58'3 7.2
2018-Apr-14 05:00N 49°12' W 122°54'0 0.0
2018-Apr-14 04:28N 49°12' W 122°54'0 0.0
2018-Apr-14 04:00N 49°12' W 122°54'0 0.0
2018-Apr-14 03:30N 49°12' W 122°54'1 2.2
2018-Apr-14 02:59N 49°11' W 122°55'4 7.8
2018-Apr-14 02:30N 49°09' W 123°01'4 8.2
2018-Apr-14 01:59N 49°07' W 123°06'4 8.0
2018-Apr-14 01:30N 49°07' W 123°12'4 8.0
2018-Apr-14 01:00N 49°06' W 123°18'4 8.0
2018-Apr-14 00:30N 49°09' W 123°23'4 8.2
2018-Apr-13 23:59N 49°12' W 123°26'4 7.9
2018-Apr-13 23:28N 49°15' W 123°31'4 8.3
2018-Apr-13 23:00N 49°15' W 123°37'11 0.8
2018-Apr-13 09:26N 49°11' W 123°53'16 8.4
2018-Apr-13 07:34N 49°09' W 123°30'2 9.2
2018-Apr-13 07:18N 49°08' W 123°26'3 9.4
2018-Apr-13 06:58N 49°07' W 123°22'4 9.3
2018-Apr-13 06:30N 49°07' W 123°15'510.6
2018-Apr-13 06:00N 49°07' W 123°07'611.5
2018-Apr-13 05:30N 49°09' W 122°60'4 8.3
2018-Apr-13 05:00N 49°12' W 122°54'0 0.1
2018-Apr-13 04:30N 49°12' W 122°54'0 0.0
2018-Apr-13 04:00N 49°12' W 122°54'0 0.0
2018-Apr-13 03:30N 49°12' W 122°54'0 0.1
2018-Apr-13 03:00N 49°12' W 122°54'3 5.4
2018-Apr-13 02:30N 49°09' W 122°57'4 7.5
2018-Apr-13 02:01N 49°09' W 123°02'4 7.6
2018-Apr-13 01:30N 49°07' W 123°07'4 7.4
2018-Apr-13 01:00N 49°08' W 123°13'4 7.8
2018-Apr-13 00:30N 49°06' W 123°18'5 9.5
2018-Apr-13 00:01N 49°09' W 123°24'4 8.9
2018-Apr-12 23:30N 49°11' W 123°31'4 8.6
2018-Apr-12 23:00N 49°12' W 123°37'2 0.2
2018-Apr-12 08:16N 49°10' W 123°34'410.2
2018-Apr-12 07:52N 49°09' W 123°29'6 9.4
2018-Apr-12 07:15N 49°06' W 123°21'2 8.5
2018-Apr-12 07:00N 49°07' W 123°17'5 9.0
2018-Apr-12 06:25N 49°07' W 123°09'410.5
2018-Apr-12 06:00N 49°08' W 123°03'510.7
2018-Apr-12 05:30N 49°10' W 122°56'2 3.4
2018-Apr-12 05:00N 49°12' W 122°54'0 0.0
2018-Apr-12 04:30N 49°12' W 122°54'0 0.0
2018-Apr-12 04:00N 49°12' W 122°54'0 0.0
2018-Apr-12 03:31N 49°12' W 122°54'1 2.0
2018-Apr-12 03:00N 49°11' W 122°55'3 6.2
2018-Apr-12 02:29N 49°09' W 122°60'3 6.6
2018-Apr-12 02:00N 49°08' W 123°04'3 7.0
2018-Apr-12 01:31N 49°07' W 123°09'4 7.0
2018-Apr-12 01:00N 49°08' W 123°14'4 7.1
2018-Apr-12 00:28N 49°07' W 123°19'4 8.8
2018-Apr-11 23:59N 49°09' W 123°24'4 9.0
2018-Apr-11 23:30N 49°12' W 123°30'4 8.5
2018-Apr-11 23:00N 49°14' W 123°35'4 0.3
2018-Apr-11 08:16N 49°10' W 123°34'  

Dump ship's entire track history